createdAt,value
2023-05-23T00:01:38.870Z,29.03
2023-05-23T00:04:06.741Z,30.90
2023-05-23T00:06:34.348Z,28.77
2023-05-23T00:09:01.280Z,30.10
2023-05-23T00:11:29.122Z,28.80
2023-05-23T00:13:57.523Z,25.83
2023-05-23T00:16:24.320Z,25.63
2023-05-23T00:18:51.851Z,34.53
2023-05-23T00:21:18.719Z,27.57
2023-05-23T00:23:45.509Z,26.97
2023-05-23T00:26:12.251Z,27.93
2023-05-23T00:28:39.036Z,27.77
2023-05-23T00:31:05.968Z,28.03
2023-05-23T00:33:34.267Z,28.27
2023-05-23T00:36:01.085Z,47.50
2023-05-23T00:38:28.475Z,26.53
2023-05-23T00:40:55.395Z,26.30
2023-05-23T00:43:22.811Z,26.13
2023-05-23T00:45:49.909Z,24.77
2023-05-23T00:48:17.077Z,25.10
2023-05-23T00:50:44.186Z,28.53
2023-05-23T00:53:11.017Z,30.87
2023-05-23T00:55:39.603Z,28.47
2023-05-23T00:58:06.683Z,31.60
2023-05-23T01:00:34.711Z,27.27
2023-05-23T01:03:01.876Z,24.87
2023-05-23T01:05:28.698Z,26.50
2023-05-23T01:07:55.693Z,27.73
2023-05-23T01:10:29.519Z,26.57
2023-05-23T01:13:18.175Z,25.30
2023-05-23T01:16:03.396Z,26.20
2023-05-23T01:18:43.828Z,23.70
2023-05-23T01:21:17.236Z,28.80
2023-05-23T01:23:56.290Z,27.40
2023-05-23T01:26:32.469Z,26.30
2023-05-23T01:29:10.993Z,41.50
2023-05-23T01:31:43.111Z,26.97
2023-05-23T01:34:12.356Z,30.73
2023-05-23T01:36:43.703Z,28.80
2023-05-23T01:39:10.772Z,31.10
2023-05-23T01:41:38.033Z,27.03
2023-05-23T01:44:05.692Z,27.03
2023-05-23T01:46:34.171Z,28.33
2023-05-23T01:49:04.240Z,30.30
2023-05-23T01:51:31.678Z,26.73
2023-05-23T01:53:59.050Z,27.33
2023-05-23T01:56:27.225Z,26.70
2023-05-23T01:58:54.425Z,26.60
2023-05-23T02:01:21.642Z,27.50
2023-05-23T02:03:49.347Z,29.50
2023-05-23T02:06:16.334Z,29.93
2023-05-23T02:08:43.233Z,27.60
2023-05-23T02:11:10.690Z,25.47
2023-05-23T02:13:37.518Z,25.90
2023-05-23T02:16:04.397Z,24.20
2023-05-23T02:18:31.203Z,29.70
2023-05-23T02:20:58.103Z,27.00
2023-05-23T02:23:24.900Z,25.67
2023-05-23T02:25:51.719Z,27.43
2023-05-23T02:28:18.493Z,28.77
2023-05-23T02:30:46.158Z,26.23
2023-05-23T02:33:13.253Z,29.37
2023-05-23T02:35:40.569Z,25.90
2023-05-23T02:38:07.499Z,27.27
2023-05-23T02:40:34.306Z,29.20
2023-05-23T02:43:01.146Z,25.30
2023-05-23T02:45:27.895Z,26.30
2023-05-23T02:47:54.745Z,31.13
2023-05-23T02:50:21.617Z,26.83
2023-05-23T02:52:48.366Z,30.13
2023-05-23T02:55:15.742Z,24.40
2023-05-23T02:57:42.550Z,29.17
2023-05-23T03:00:10.273Z,28.43
2023-05-23T03:02:37.331Z,28.07
2023-05-23T03:05:06.229Z,25.87
2023-05-23T03:07:33.921Z,25.67
2023-05-23T03:10:01.174Z,31.10
2023-05-23T03:12:29.279Z,25.53
2023-05-23T03:14:56.119Z,25.63
2023-05-23T03:17:25.091Z,27.07
2023-05-23T03:19:51.906Z,27.23
2023-05-23T03:22:18.678Z,29.23
2023-05-23T03:24:45.469Z,24.20
2023-05-23T03:27:12.321Z,26.80
2023-05-23T03:29:39.473Z,28.70
2023-05-23T03:32:06.725Z,27.80
2023-05-23T03:34:34.027Z,26.47
2023-05-23T03:37:00.894Z,36.60
2023-05-23T03:39:27.634Z,32.07
2023-05-23T03:41:54.503Z,23.93
2023-05-23T03:44:21.388Z,24.83
2023-05-23T03:46:48.144Z,25.33
2023-05-23T03:49:15.296Z,26.30
2023-05-23T03:51:42.064Z,25.63
2023-05-23T03:54:08.878Z,28.83
2023-05-23T03:56:35.671Z,29.17
2023-05-23T03:59:02.443Z,26.20
2023-05-23T04:01:29.226Z,28.40
2023-05-23T04:03:56.068Z,23.90
2023-05-23T04:06:23.388Z,28.83
2023-05-23T04:08:50.153Z,31.00
2023-05-23T04:11:17.783Z,29.57
2023-05-23T04:13:47.045Z,27.20
2023-05-23T04:16:13.924Z,35.23
2023-05-23T04:18:40.965Z,24.87
2023-05-23T04:21:07.755Z,29.50
2023-05-23T04:23:34.647Z,29.13
2023-05-23T04:26:01.484Z,26.07
2023-05-23T04:28:28.388Z,28.20
2023-05-23T04:30:56.379Z,26.27
2023-05-23T04:33:23.282Z,26.90
2023-05-23T04:35:51.250Z,28.37
2023-05-23T04:38:18.052Z,28.73
2023-05-23T04:40:44.830Z,35.47
2023-05-23T04:43:14.303Z,26.30
2023-05-23T04:45:41.748Z,28.27
2023-05-23T04:48:08.809Z,27.47
2023-05-23T04:50:36.055Z,27.33
2023-05-23T04:53:02.816Z,32.67
2023-05-23T04:55:29.795Z,25.60
2023-05-23T04:57:56.706Z,27.67
2023-05-23T05:00:23.723Z,31.03
2023-05-23T05:02:50.587Z,26.30
2023-05-23T05:05:17.594Z,32.07
2023-05-23T05:07:44.390Z,30.93
2023-05-23T05:10:16.943Z,31.73
2023-05-23T05:12:46.858Z,26.90
2023-05-23T05:15:13.983Z,30.87
2023-05-23T05:17:41.947Z,30.00
2023-05-23T05:20:10.835Z,28.67
2023-05-23T05:22:42.971Z,31.17
2023-05-23T05:25:11.089Z,29.30
2023-05-23T05:27:38.078Z,29.10
2023-05-23T05:30:09.095Z,36.33
2023-05-23T05:32:36.171Z,29.00
2023-05-23T05:35:03.655Z,36.20
2023-05-23T05:37:30.741Z,30.57
2023-05-23T05:39:57.531Z,31.70
2023-05-23T05:42:24.523Z,37.77
2023-05-23T05:44:51.371Z,30.90
2023-05-23T05:47:18.194Z,32.00
2023-05-23T05:49:44.940Z,29.97
2023-05-23T05:52:11.721Z,29.43
2023-05-23T05:54:38.500Z,42.63
2023-05-23T05:57:05.547Z,32.80
2023-05-23T05:59:32.706Z,56.23
2023-05-23T06:01:59.661Z,33.60
2023-05-23T06:04:26.589Z,31.70
2023-05-23T06:06:53.441Z,32.27
2023-05-23T06:09:20.760Z,34.40
2023-05-23T06:11:47.618Z,36.47
2023-05-23T06:14:14.425Z,27.90
2023-05-23T06:16:41.932Z,37.53
2023-05-23T06:19:08.801Z,33.63
2023-05-23T06:21:36.311Z,33.70
2023-05-23T06:24:03.094Z,33.03
2023-05-23T06:26:31.886Z,32.67
2023-05-23T06:28:58.619Z,28.57
2023-05-23T06:31:25.616Z,30.63
2023-05-23T06:33:52.504Z,29.03
2023-05-23T06:36:19.226Z,28.80
2023-05-23T06:38:47.413Z,32.80
2023-05-23T06:41:43.082Z,29.87
2023-05-23T06:44:09.970Z,31.13
2023-05-23T06:46:39.700Z,28.27
2023-05-23T06:51:40.401Z,31.87
2023-05-23T06:54:07.321Z,26.77
2023-05-23T06:56:34.157Z,31.80
2023-05-23T06:59:00.965Z,32.87
2023-05-23T07:01:27.796Z,30.20
2023-05-23T07:03:54.654Z,30.37
2023-05-23T07:06:21.463Z,33.63
2023-05-23T07:08:48.212Z,30.03
2023-05-23T07:11:15.041Z,28.80
2023-05-23T07:13:41.854Z,37.43
2023-05-23T07:16:08.640Z,31.70
2023-05-23T07:18:37.752Z,32.40
2023-05-23T07:21:05.800Z,32.40
2023-05-23T07:23:35.354Z,26.83
2023-05-23T07:26:03.308Z,26.47
2023-05-23T07:28:30.458Z,26.80
2023-05-23T07:30:58.291Z,25.57
2023-05-23T07:33:25.358Z,25.73
2023-05-23T07:35:52.213Z,29.60
2023-05-23T07:38:18.999Z,25.30
2023-05-23T07:40:52.712Z,34.03
2023-05-23T07:43:29.691Z,26.47
2023-05-23T07:45:56.530Z,30.70
2023-05-23T07:48:23.319Z,27.90
2023-05-23T07:50:54.925Z,33.03
2023-05-23T07:53:22.643Z,25.70
2023-05-23T07:55:49.551Z,31.23
2023-05-23T07:58:16.351Z,26.27
2023-05-23T08:00:44.243Z,31.73
2023-05-23T08:03:11.916Z,28.37
2023-05-23T08:05:39.267Z,24.57
2023-05-23T08:08:06.127Z,28.30
2023-05-23T08:10:32.907Z,32.33
2023-05-23T08:13:00.953Z,26.20
2023-05-23T08:15:28.792Z,25.40
2023-05-23T08:17:57.377Z,28.00
2023-05-23T08:20:30.802Z,26.93
2023-05-23T08:22:59.284Z,31.80
2023-05-23T08:25:30.311Z,32.57
2023-05-23T08:27:58.676Z,28.07
2023-05-23T08:30:26.574Z,25.00
2023-05-23T08:32:54.126Z,31.47
2023-05-23T08:35:22.253Z,28.13
2023-05-23T08:37:50.873Z,26.50
2023-05-23T08:40:22.144Z,26.90
2023-05-23T08:42:50.057Z,35.53
2023-05-23T08:45:17.479Z,25.70
2023-05-23T08:47:45.804Z,27.00
2023-05-23T08:50:14.375Z,27.40
2023-05-23T08:52:47.972Z,31.30
2023-05-23T08:55:16.251Z,26.10
2023-05-23T08:57:43.761Z,25.77
2023-05-23T09:00:14.872Z,31.50
2023-05-23T09:02:47.287Z,26.87
2023-05-23T09:05:14.659Z,25.90
2023-05-23T09:07:43.241Z,29.83
2023-05-23T09:10:11.157Z,30.50
2023-05-23T09:12:38.066Z,29.23
2023-05-23T09:15:09.687Z,31.20
2023-05-23T09:17:38.000Z,28.50
2023-05-23T09:20:12.668Z,28.83
2023-05-23T09:22:39.719Z,31.30
2023-05-23T09:25:07.814Z,29.90
2023-05-23T09:27:36.237Z,36.33
2023-05-23T09:30:10.952Z,32.93
2023-05-23T09:32:38.301Z,31.87
2023-05-23T09:35:06.969Z,32.20
2023-05-23T09:37:45.950Z,31.17
2023-05-23T09:40:14.756Z,32.53
2023-05-23T09:42:46.788Z,33.50
2023-05-23T09:45:14.437Z,33.13
2023-05-23T09:47:53.938Z,34.50
2023-05-23T09:50:21.880Z,35.97
2023-05-23T09:52:49.117Z,33.47
2023-05-23T09:55:16.070Z,36.30
2023-05-23T09:57:44.153Z,35.10
2023-05-23T10:00:14.838Z,40.67
2023-05-23T10:03:14.087Z,34.70
2023-05-23T10:05:51.924Z,40.03
2023-05-23T10:08:37.749Z,39.63
2023-05-23T10:11:13.838Z,37.13
2023-05-23T10:13:43.849Z,33.87
2023-05-23T10:16:34.244Z,36.57
2023-05-23T10:19:10.802Z,37.93
2023-05-23T10:21:46.483Z,37.20
2023-05-23T10:24:14.149Z,35.50
2023-05-23T10:26:41.392Z,36.40
2023-05-23T10:29:08.162Z,40.50
2023-05-23T10:31:35.903Z,40.40
2023-05-23T10:34:16.125Z,35.13
2023-05-23T10:37:20.228Z,36.33
2023-05-23T10:39:52.224Z,41.67
2023-05-23T10:42:34.237Z,42.43
2023-05-23T10:45:21.129Z,44.93
2023-05-23T10:47:51.136Z,39.93
2023-05-23T10:50:40.117Z,41.90
2023-05-23T10:53:09.237Z,42.17
2023-05-23T10:55:37.060Z,40.27
2023-05-23T10:58:21.720Z,45.37
2023-05-23T11:01:02.871Z,46.40
2023-05-23T11:03:51.980Z,41.93
2023-05-23T11:06:34.035Z,42.60
2023-05-23T11:09:25.334Z,46.07
2023-05-23T11:11:52.641Z,42.90
2023-05-23T11:14:20.906Z,45.43
2023-05-23T11:16:49.133Z,43.83
2023-05-23T11:19:19.152Z,46.80
2023-05-23T11:22:00.204Z,45.70
2023-05-23T11:24:54.964Z,42.67
2023-05-23T11:27:28.687Z,43.30
2023-05-23T11:30:07.217Z,46.87
2023-05-23T11:32:34.173Z,47.30
2023-05-23T11:35:08.074Z,51.57
2023-05-23T11:37:35.692Z,47.07
2023-05-23T11:40:27.028Z,46.33
2023-05-23T11:42:55.581Z,49.93
2023-05-23T11:45:27.284Z,50.83
2023-05-23T11:47:54.405Z,48.53
2023-05-23T11:50:21.594Z,42.57
2023-05-23T11:52:51.858Z,42.87
2023-05-23T11:55:23.129Z,41.53
2023-05-23T11:57:51.591Z,41.83
2023-05-23T12:00:19.427Z,42.90
2023-05-23T12:02:49.967Z,42.37
2023-05-23T12:05:17.352Z,46.40
2023-05-23T12:07:49.282Z,43.80
2023-05-23T12:10:17.694Z,42.53
2023-05-23T12:12:47.792Z,37.83
2023-05-23T12:15:15.149Z,41.73
2023-05-23T12:17:46.492Z,39.97
2023-05-23T12:20:13.718Z,37.70
2023-05-23T12:22:41.487Z,40.60
2023-05-23T12:25:11.680Z,39.40
2023-05-23T12:27:43.858Z,42.73
2023-05-23T12:30:14.888Z,44.00
2023-05-23T12:32:43.309Z,42.73
2023-05-23T12:35:13.415Z,43.20
2023-05-23T12:37:42.898Z,44.87
2023-05-23T12:40:14.578Z,40.07
2023-05-23T12:42:55.335Z,42.47
2023-05-23T12:45:24.229Z,40.67
2023-05-23T12:47:53.944Z,38.30
2023-05-23T12:50:21.281Z,40.30
2023-05-23T12:52:48.327Z,43.93
2023-05-23T12:55:15.299Z,39.90
2023-05-23T12:57:42.062Z,38.17
2023-05-23T13:00:09.875Z,38.03
2023-05-23T13:02:36.784Z,39.60
2023-05-23T13:05:03.725Z,38.43
2023-05-23T13:07:30.454Z,37.57
2023-05-23T13:09:57.612Z,38.17
2023-05-23T13:12:24.586Z,39.90
2023-05-23T13:14:51.622Z,34.83
2023-05-23T13:17:18.634Z,37.57
2023-05-23T13:19:45.753Z,36.77
2023-05-23T13:22:13.203Z,35.53
2023-05-23T13:24:40.976Z,36.53
2023-05-23T13:27:07.993Z,39.77
2023-05-23T13:29:35.021Z,42.87
2023-05-23T13:32:01.885Z,41.40
2023-05-23T13:34:28.763Z,39.20
2023-05-23T13:36:55.945Z,39.50
2023-05-23T13:39:22.886Z,41.33
2023-05-23T13:41:52.653Z,40.67
2023-05-23T13:44:19.495Z,44.63
2023-05-23T13:46:46.285Z,51.47
2023-05-23T13:49:13.093Z,48.77
2023-05-23T13:51:40.060Z,52.30
2023-05-23T13:54:07.055Z,54.30
2023-05-23T13:56:33.949Z,55.23
2023-05-23T13:59:01.268Z,53.67
2023-05-23T14:01:28.542Z,52.87
2023-05-23T14:03:55.492Z,54.67
2023-05-23T14:06:22.436Z,60.97
2023-05-23T14:08:49.287Z,54.87
2023-05-23T14:11:16.075Z,53.03
2023-05-23T14:13:42.850Z,54.73
2023-05-23T14:16:09.638Z,51.03
2023-05-23T14:18:36.480Z,52.67
2023-05-23T14:21:03.263Z,56.70
2023-05-23T14:23:30.040Z,57.37
2023-05-23T14:25:56.859Z,52.90
2023-05-23T14:28:24.649Z,53.60
2023-05-23T14:30:51.457Z,61.30
2023-05-23T14:33:18.760Z,58.67
2023-05-23T14:35:45.575Z,57.50
2023-05-23T14:38:12.347Z,52.83
2023-05-23T14:40:39.157Z,50.63
2023-05-23T14:43:05.895Z,50.43
2023-05-23T14:45:32.690Z,52.63
2023-05-23T14:47:59.511Z,55.53
2023-05-23T14:50:26.695Z,55.53
2023-05-23T14:52:53.950Z,52.00
2023-05-23T14:55:21.037Z,53.53
2023-05-23T14:57:47.829Z,50.60
2023-05-23T15:00:14.960Z,50.10
2023-05-23T15:02:41.831Z,50.00
2023-05-23T15:05:08.987Z,49.70
2023-05-23T15:07:35.994Z,50.47
2023-05-23T15:10:03.321Z,52.13
2023-05-23T15:12:30.103Z,48.30
2023-05-23T15:15:03.272Z,43.90
2023-05-23T15:17:31.221Z,44.20
2023-05-23T15:19:58.155Z,46.40
2023-05-23T15:22:37.875Z,43.47
2023-05-23T15:25:08.047Z,48.87
2023-05-23T15:27:34.830Z,47.80
2023-05-23T15:30:02.088Z,47.13
2023-05-23T15:32:29.069Z,53.57
2023-05-23T15:34:55.966Z,53.20
2023-05-23T15:37:22.885Z,54.80
2023-05-23T15:39:49.613Z,48.20
2023-05-23T15:42:16.401Z,48.60
2023-05-23T15:44:43.329Z,47.23
2023-05-23T15:47:10.668Z,47.77
2023-05-23T15:49:37.461Z,50.40
2023-05-23T15:52:04.465Z,47.70
2023-05-23T15:54:31.255Z,51.47
2023-05-23T15:56:58.001Z,50.33
2023-05-23T15:59:24.794Z,41.77
2023-05-23T16:01:51.669Z,41.10
2023-05-23T16:04:18.738Z,38.53
2023-05-23T16:06:46.617Z,38.37
2023-05-23T16:09:13.395Z,35.90
2023-05-23T16:11:40.275Z,37.20
2023-05-23T16:14:07.214Z,36.10
2023-05-23T16:16:34.824Z,34.27
2023-05-23T16:19:01.663Z,39.20
2023-05-23T16:21:28.527Z,34.93
2023-05-23T16:23:55.462Z,32.17
2023-05-23T16:26:22.256Z,47.17
2023-05-23T16:28:49.009Z,38.80
2023-05-23T16:31:16.838Z,30.10
2023-05-23T16:33:44.620Z,33.97
2023-05-23T16:36:11.639Z,31.30
2023-05-23T16:38:38.452Z,28.00
2023-05-23T16:41:05.329Z,35.37
2023-05-23T16:43:34.533Z,32.60
2023-05-23T16:46:01.403Z,32.90
2023-05-23T16:48:28.346Z,36.57
2023-05-23T16:50:55.376Z,36.17
2023-05-23T16:53:22.494Z,31.97
2023-05-23T16:55:50.088Z,34.40
2023-05-23T16:58:19.298Z,32.47
2023-05-23T17:00:47.762Z,35.43
2023-05-23T17:03:14.666Z,34.87
2023-05-23T17:05:41.845Z,37.37
2023-05-23T17:08:08.994Z,31.27
2023-05-23T17:10:36.812Z,34.83
2023-05-23T17:13:03.592Z,34.73
2023-05-23T17:15:30.615Z,37.77
2023-05-23T17:17:57.527Z,39.30
2023-05-23T17:20:26.657Z,30.00
2023-05-23T17:22:53.525Z,31.33
2023-05-23T17:25:20.566Z,26.00
2023-05-23T17:27:47.516Z,24.83
2023-05-23T17:30:14.698Z,25.53
2023-05-23T17:32:43.312Z,24.57
2023-05-23T17:35:10.683Z,26.47
2023-05-23T17:37:37.828Z,24.60
2023-05-23T17:40:06.639Z,26.30
2023-05-23T17:42:33.456Z,27.50
2023-05-23T17:45:00.292Z,30.27
2023-05-23T17:47:27.151Z,29.50
2023-05-23T17:49:54.005Z,29.97
2023-05-23T17:52:20.893Z,30.07
2023-05-23T17:54:47.654Z,33.83
2023-05-23T17:57:15.629Z,27.10
2023-05-23T17:59:42.374Z,27.43
2023-05-23T18:02:10.670Z,26.97
2023-05-23T18:04:37.747Z,28.47
2023-05-23T18:07:05.879Z,26.30
2023-05-23T18:09:32.662Z,27.30
2023-05-23T18:11:59.640Z,29.60
2023-05-23T18:14:26.640Z,28.10
2023-05-23T18:16:53.505Z,26.57
2023-05-23T18:19:20.424Z,33.90
2023-05-23T18:21:47.211Z,32.63
2023-05-23T18:24:13.992Z,25.40
2023-05-23T18:26:43.007Z,26.90
2023-05-23T18:29:10.117Z,30.17
2023-05-23T18:31:37.085Z,34.80
2023-05-23T18:34:04.646Z,34.80
2023-05-23T18:36:31.716Z,31.57
2023-05-23T18:38:58.573Z,29.07
2023-05-23T18:41:27.955Z,36.43
2023-05-23T18:43:54.855Z,34.27
2023-05-23T18:46:23.985Z,34.37
2023-05-23T18:48:51.429Z,33.87
2023-05-23T18:51:18.295Z,33.83
2023-05-23T18:53:45.178Z,32.77
2023-05-23T18:56:11.985Z,29.00
2023-05-23T18:58:38.705Z,31.00
2023-05-23T19:01:06.896Z,31.00
2023-05-23T19:03:37.319Z,29.33
2023-05-23T19:06:04.762Z,32.60
2023-05-23T19:08:32.437Z,28.60
2023-05-23T19:11:00.189Z,32.60
2023-05-23T19:13:27.666Z,33.77
2023-05-23T19:15:54.686Z,37.53
2023-05-23T19:18:21.495Z,30.73
2023-05-23T19:20:48.369Z,34.20
2023-05-23T19:23:15.465Z,34.40
2023-05-23T19:25:42.412Z,30.83
2023-05-23T19:28:09.351Z,30.43
2023-05-23T19:30:38.227Z,32.87
2023-05-23T19:33:05.679Z,30.97
2023-05-23T19:35:32.742Z,31.60
2023-05-23T19:38:00.842Z,32.90
2023-05-23T19:40:27.572Z,28.30
2023-05-23T19:42:54.443Z,34.20
2023-05-23T19:45:21.337Z,31.60
2023-05-23T19:47:48.148Z,29.80
2023-05-23T19:50:15.246Z,29.93
2023-05-23T19:52:42.193Z,35.27
2023-05-23T19:55:10.008Z,30.83
2023-05-23T19:57:37.287Z,35.20
2023-05-23T20:00:06.146Z,29.37
2023-05-23T20:02:33.114Z,37.70
2023-05-23T20:04:59.948Z,35.80
2023-05-23T20:07:26.879Z,33.57
2023-05-23T20:09:55.105Z,31.67
2023-05-23T20:12:21.902Z,31.57
2023-05-23T20:14:48.763Z,29.40
2023-05-23T20:17:15.578Z,25.57
2023-05-23T20:19:42.342Z,36.67
2023-05-23T20:22:09.106Z,29.83
2023-05-23T20:24:35.868Z,31.63
2023-05-23T20:27:02.723Z,32.77
2023-05-23T20:29:29.679Z,32.70
2023-05-23T20:31:56.447Z,38.50
2023-05-23T20:34:23.193Z,31.10
2023-05-23T20:36:50.170Z,26.10
2023-05-23T20:39:17.223Z,29.87
2023-05-23T20:41:45.596Z,29.53
2023-05-23T20:44:14.242Z,35.57
2023-05-23T20:46:41.088Z,31.97
2023-05-23T20:49:08.241Z,31.63
2023-05-23T20:51:37.139Z,30.63
2023-05-23T20:54:05.295Z,32.03
2023-05-23T20:56:32.602Z,33.30
2023-05-23T20:59:00.394Z,31.67
2023-05-23T21:01:28.107Z,26.80
2023-05-23T21:03:55.595Z,29.50
2023-05-23T21:06:23.735Z,33.40
2023-05-23T21:08:50.558Z,36.50
2023-05-23T21:11:17.410Z,33.07
2023-05-23T21:13:44.646Z,28.80
2023-05-23T21:16:14.416Z,34.57
2023-05-23T21:18:41.455Z,29.83
2023-05-23T21:21:08.351Z,36.03
2023-05-23T21:23:35.313Z,28.53
2023-05-23T21:26:02.251Z,32.10
2023-05-23T21:28:29.038Z,33.27
2023-05-23T21:30:56.310Z,27.53
2023-05-23T21:33:23.162Z,33.60
2023-05-23T21:35:51.145Z,40.00
2023-05-23T21:38:18.768Z,32.13
2023-05-23T21:40:45.610Z,28.90
2023-05-23T21:43:12.488Z,27.17
2023-05-23T21:45:39.274Z,28.57
2023-05-23T21:48:06.170Z,27.50
2023-05-23T21:50:32.971Z,30.10
2023-05-23T21:52:59.713Z,31.67
2023-05-23T21:55:27.294Z,28.77
2023-05-23T21:57:54.215Z,33.40
2023-05-23T22:00:21.710Z,24.70
2023-05-23T22:02:48.580Z,28.60
2023-05-23T22:05:15.509Z,33.47
2023-05-23T22:07:42.305Z,33.23
2023-05-23T22:10:09.658Z,33.57
2023-05-23T22:12:36.464Z,34.63
2023-05-23T22:15:03.568Z,28.77
2023-05-23T22:17:30.457Z,34.20
2023-05-23T22:19:58.261Z,33.13
2023-05-23T22:22:25.097Z,26.93
2023-05-23T22:24:52.615Z,29.93
2023-05-23T22:27:20.249Z,28.97
2023-05-23T22:29:47.090Z,36.83
2023-05-23T22:32:13.922Z,28.77
2023-05-23T22:34:40.819Z,29.97
2023-05-23T22:37:07.923Z,27.70
2023-05-23T22:39:34.764Z,30.90
2023-05-23T22:42:01.876Z,30.53
2023-05-23T22:44:28.810Z,37.23
2023-05-23T22:46:57.116Z,31.70
2023-05-23T22:49:25.234Z,39.83
2023-05-23T22:51:51.979Z,31.83
2023-05-23T22:54:18.849Z,39.63
2023-05-23T22:56:45.632Z,27.67
2023-05-23T22:59:12.468Z,34.10
2023-05-23T23:01:39.307Z,34.97
2023-05-23T23:04:06.209Z,45.40
2023-05-23T23:06:33.963Z,33.63
2023-05-23T23:09:00.699Z,26.70
2023-05-23T23:11:27.472Z,27.83
2023-05-23T23:13:54.283Z,32.27
2023-05-23T23:16:21.738Z,29.63
2023-05-23T23:18:49.079Z,32.70
2023-05-23T23:21:16.450Z,32.23
2023-05-23T23:23:43.247Z,27.87
2023-05-23T23:26:10.058Z,27.50
2023-05-23T23:28:36.832Z,32.70
2023-05-23T23:31:03.731Z,28.80
2023-05-23T23:33:30.541Z,30.13
2023-05-23T23:35:57.702Z,30.07
2023-05-23T23:38:24.503Z,32.00
2023-05-23T23:40:51.311Z,27.67
2023-05-23T23:43:18.253Z,30.53
2023-05-23T23:45:45.415Z,27.57
2023-05-23T23:48:13.905Z,24.07
2023-05-23T23:50:40.873Z,29.87
2023-05-23T23:53:07.852Z,38.73
2023-05-23T23:55:34.683Z,38.20
2023-05-23T23:58:01.416Z,30.13
